Avon Heights, Pennsylvania
Current Conditions -  °F | °C
As of 4:58 AM on Sunday 25 Jan 2015 (Local Time) from KMUI Reporting Station
Overcast Overcast  
Wind Chill: 29°   Ceiling: 3400
Heat Index: 35°   Visibility: 10mi
Dew Point: 27°   Wind: 8mph
Humidity: 72%   Direction: 230°SW
Pressure: 29.66"   Gusts: NA
Location:  40.2957°N, 76.4189°W
Report Text: KMUI 250958Z AUTO 23007KT 10SM OVC034 02/M03 A2966 RMK AO2 SLP050 T00181027
Loading
Personal Weather Stations






























Interactive Weather Map New forecast layout! Learn more

10-Day Weather Forecast

Advertisements
Track Severe Weather on mobile